Terminal Aerodrome Forecast
Issued by NWS

Home | Current Version | Previous Version | Text Only | Print | Product List | Glossary On
Versions: 1 2 3 4 5 6 7 8 9 10 11 12 13
000
FTUS46 KSEW 071450 AAA
TAFPAE
TAF AMD
KPAE 071450Z 0715/0812 23004KT P6SM SCT010 BKN150
      TEMPO 0715/0717 BKN010 BKN150
     FM071800 27006KT P6SM BKN200
     FM080000 33005KT P6SM OVC130=

USA.gov is the U.S. government's official web portal to all federal, state and local government web resources and services.